createdAt,value
2018-07-30T00:00:41.202Z,54.70
2018-07-30T00:03:09.473Z,54.70
2018-07-30T00:05:37.764Z,54.50
2018-07-30T00:08:06.207Z,54.50
2018-07-30T00:10:34.522Z,54.50
2018-07-30T00:13:02.805Z,54.50
2018-07-30T00:15:31.121Z,54.50
2018-07-30T00:17:59.415Z,55.20
2018-07-30T00:20:27.715Z,54.40
2018-07-30T00:22:56.276Z,54.30
2018-07-30T00:25:24.533Z,54.40
2018-07-30T00:27:52.838Z,54.40
2018-07-30T00:30:21.142Z,54.30
2018-07-30T00:32:49.455Z,54.20
2018-07-30T00:35:17.759Z,54.10
2018-07-30T00:37:46.102Z,54.10
2018-07-30T00:40:15.147Z,54.20
2018-07-30T00:42:44.447Z,54.10
2018-07-30T00:45:12.754Z,54.10
2018-07-30T00:50:09.296Z,54.70
2018-07-30T00:52:37.579Z,54.10
2018-07-30T00:55:06.146Z,54.10
2018-07-30T00:57:34.634Z,54.20
2018-07-30T01:00:02.933Z,54.10
2018-07-30T01:02:31.264Z,54.10
2018-07-30T01:04:59.555Z,54.10
2018-07-30T01:07:27.850Z,54.10
2018-07-30T01:09:56.167Z,54.10
2018-07-30T01:12:24.475Z,54.10
2018-07-30T01:14:52.785Z,54.10
2018-07-30T01:19:49.146Z,54.10
2018-07-30T01:22:17.438Z,54.00
2018-07-30T01:24:45.754Z,54.00
2018-07-30T01:27:14.121Z,54.00
2018-07-30T01:29:42.423Z,53.90
2018-07-30T01:32:10.721Z,54.00
2018-07-30T01:34:38.990Z,53.90
2018-07-30T01:39:35.330Z,53.90
2018-07-30T01:42:03.630Z,53.90
2018-07-30T01:44:31.899Z,53.90
2018-07-30T01:47:00.188Z,54.00
2018-07-30T01:49:28.487Z,54.00
2018-07-30T01:51:56.753Z,53.90
2018-07-30T01:54:25.061Z,53.90
2018-07-30T01:56:53.414Z,53.80
2018-07-30T01:59:21.695Z,53.80
2018-07-30T02:01:49.978Z,53.90
2018-07-30T02:04:18.358Z,53.80
2018-07-30T02:06:46.682Z,53.90
2018-07-30T02:09:14.975Z,53.80
2018-07-30T02:11:43.278Z,53.70
2018-07-30T02:14:11.547Z,53.90
2018-07-30T02:16:39.929Z,53.80
2018-07-30T02:19:08.202Z,53.80
2018-07-30T02:21:36.512Z,54.20
2018-07-30T02:24:04.774Z,54.00
2018-07-30T02:26:33.050Z,54.00
2018-07-30T02:29:01.361Z,54.00
2018-07-30T02:31:29.642Z,53.80
2018-07-30T02:33:57.990Z,53.90
2018-07-30T02:36:26.288Z,54.00
2018-07-30T02:38:54.594Z,53.90
2018-07-30T02:41:22.899Z,53.90
2018-07-30T02:43:51.183Z,53.90
2018-07-30T02:46:19.494Z,54.00
2018-07-30T02:48:47.795Z,54.00
2018-07-30T02:56:12.224Z,54.10
2018-07-30T02:58:40.519Z,54.50
2018-07-30T03:01:08.801Z,54.70
2018-07-30T03:03:37.095Z,54.60
2018-07-30T03:06:05.416Z,54.50
2018-07-30T03:11:01.902Z,54.20
2018-07-30T03:13:30.196Z,54.20
2018-07-30T03:15:58.474Z,54.20
2018-07-30T03:18:26.771Z,54.30
2018-07-30T03:20:55.374Z,54.30
2018-07-30T03:23:23.721Z,54.20
2018-07-30T03:25:52.075Z,54.20
2018-07-30T03:28:20.458Z,54.20
2018-07-30T03:30:48.802Z,54.20
2018-07-30T03:33:17.135Z,54.20
2018-07-30T03:35:45.436Z,54.90
2018-07-30T03:38:13.754Z,54.20
2018-07-30T03:40:42.140Z,54.20
2018-07-30T03:43:10.431Z,54.20
2018-07-30T03:45:38.817Z,54.20
2018-07-30T03:48:07.142Z,54.30
2018-07-30T03:50:35.410Z,54.20
2018-07-30T03:53:03.710Z,54.40
2018-07-30T03:58:00.243Z,55.00
2018-07-30T04:00:28.515Z,54.30
2018-07-30T04:02:56.820Z,54.20
2018-07-30T04:05:25.127Z,54.30
2018-07-30T04:07:53.472Z,54.30
2018-07-30T04:10:21.711Z,54.40
2018-07-30T04:12:50.011Z,54.40
2018-07-30T04:15:18.287Z,54.30
2018-07-30T04:17:46.590Z,54.30
2018-07-30T04:20:14.896Z,54.30
2018-07-30T04:22:43.188Z,54.30
2018-07-30T04:25:11.465Z,54.30
2018-07-30T04:27:39.845Z,54.30
2018-07-30T04:30:08.135Z,54.40
2018-07-30T04:32:36.495Z,54.30
2018-07-30T04:35:04.790Z,54.30
2018-07-30T04:37:33.089Z,54.40
2018-07-30T04:42:29.463Z,54.30
2018-07-30T04:44:57.742Z,54.30
2018-07-30T04:47:26.015Z,54.40
2018-07-30T04:49:54.310Z,54.40
2018-07-30T04:52:22.658Z,54.40
2018-07-30T04:54:50.941Z,54.50
2018-07-30T04:57:19.360Z,54.60
2018-07-30T04:59:47.670Z,54.50
2018-07-30T05:02:15.959Z,54.50
2018-07-30T05:04:44.259Z,54.50
2018-07-30T05:07:12.561Z,54.60
2018-07-30T05:09:40.845Z,54.40
2018-07-30T05:12:09.159Z,54.40
2018-07-30T05:14:37.476Z,54.50
2018-07-30T05:17:05.751Z,54.50
2018-07-30T05:19:34.167Z,54.30
2018-07-30T05:22:02.371Z,54.60
2018-07-30T05:24:30.709Z,54.60
2018-07-30T05:26:59.010Z,54.50
2018-07-30T05:29:27.334Z,54.60
2018-07-30T05:31:55.608Z,54.60
2018-07-30T05:34:23.903Z,54.80
2018-07-30T05:36:52.190Z,54.70
2018-07-30T05:39:20.510Z,54.60
2018-07-30T05:41:48.785Z,54.70
2018-07-30T05:44:17.110Z,54.90
2018-07-30T05:46:45.411Z,55.00
2018-07-30T05:49:13.767Z,55.20
2018-07-30T05:51:42.043Z,55.00
2018-07-30T05:54:10.346Z,55.00
2018-07-30T05:56:38.675Z,55.10
2018-07-30T05:59:06.968Z,55.10
2018-07-30T06:01:35.279Z,55.00
2018-07-30T06:04:03.590Z,55.10
2018-07-30T06:06:31.890Z,55.20
2018-07-30T06:09:00.925Z,55.10
2018-07-30T06:11:29.247Z,55.20
2018-07-30T06:13:57.554Z,55.10
2018-07-30T06:16:25.846Z,55.40
2018-07-30T06:18:54.390Z,55.40
2018-07-30T06:21:22.687Z,55.40
2018-07-30T06:23:50.991Z,55.40
2018-07-30T06:26:19.348Z,55.30
2018-07-30T06:28:47.584Z,55.20
2018-07-30T06:33:43.949Z,55.30
2018-07-30T06:36:12.243Z,55.40
2018-07-30T06:38:40.592Z,55.40
2018-07-30T06:41:08.953Z,56.30
2018-07-30T06:43:37.268Z,56.60
2018-07-30T06:46:05.658Z,57.00
2018-07-30T06:48:33.958Z,58.30
2018-07-30T06:51:02.266Z,59.20
2018-07-30T06:53:30.595Z,59.50
2018-07-30T06:55:58.886Z,59.60
2018-07-30T06:58:27.382Z,60.00
2018-07-30T07:00:55.690Z,60.50
2018-07-30T07:03:24.036Z,60.30
2018-07-30T07:05:52.290Z,59.90
2018-07-30T07:08:20.587Z,60.10
2018-07-30T07:10:48.944Z,59.60
2018-07-30T07:13:17.200Z,59.50
2018-07-30T07:15:45.518Z,59.60
2018-07-30T07:18:13.935Z,59.90
2018-07-30T07:20:42.227Z,59.80
2018-07-30T07:23:10.484Z,59.70
2018-07-30T07:28:06.945Z,59.60
2018-07-30T07:30:35.174Z,59.40
2018-07-30T07:33:03.448Z,59.10
2018-07-30T07:35:31.767Z,59.20
2018-07-30T07:38:00.082Z,59.40
2018-07-30T07:40:28.404Z,59.30
2018-07-30T07:42:56.728Z,59.10
2018-07-30T07:45:25.054Z,59.70
2018-07-30T07:47:53.433Z,59.40
2018-07-30T07:50:22.921Z,59.10
2018-07-30T07:52:51.363Z,59.20
2018-07-30T07:55:19.699Z,59.50
2018-07-30T07:57:48.012Z,59.50
2018-07-30T08:00:16.319Z,59.80
2018-07-30T08:02:44.628Z,59.50
2018-07-30T08:05:12.983Z,59.60
2018-07-30T08:07:41.293Z,59.80
2018-07-30T08:10:09.657Z,59.30
2018-07-30T08:12:38.093Z,59.90
2018-07-30T08:15:07.543Z,59.10
2018-07-30T08:17:35.901Z,59.30
2018-07-30T08:20:05.214Z,59.10
2018-07-30T08:22:33.544Z,59.40
2018-07-30T08:25:01.902Z,59.20
2018-07-30T08:27:30.468Z,59.00
2018-07-30T08:29:58.779Z,58.80
2018-07-30T08:32:27.128Z,58.50
2018-07-30T08:34:55.431Z,58.70
2018-07-30T08:37:23.848Z,58.70
2018-07-30T08:39:52.139Z,58.60
2018-07-30T08:42:20.471Z,58.70
2018-07-30T08:44:48.767Z,58.30
2018-07-30T08:47:17.132Z,58.50
2018-07-30T08:49:45.465Z,58.50
2018-07-30T08:52:13.795Z,58.50
2018-07-30T08:54:42.128Z,58.60
2018-07-30T08:57:10.420Z,58.30
2018-07-30T09:02:06.789Z,57.50
2018-07-30T09:04:35.111Z,58.10
2018-07-30T09:07:03.435Z,58.30
2018-07-30T09:09:31.735Z,58.10
2018-07-30T09:12:00.048Z,58.20
2018-07-30T09:14:28.356Z,58.10
2018-07-30T09:16:56.682Z,58.30
2018-07-30T09:19:24.989Z,58.10
2018-07-30T09:21:53.331Z,58.10
2018-07-30T09:24:21.628Z,58.10
2018-07-30T09:26:51.665Z,58.10
2018-07-30T09:29:19.946Z,58.00
2018-07-30T09:34:16.354Z,58.30
2018-07-30T09:36:44.682Z,58.50
2018-07-30T09:41:41.168Z,58.10
2018-07-30T09:44:09.511Z,58.20
2018-07-30T09:46:37.810Z,58.30
2018-07-30T09:49:06.146Z,58.30
2018-07-30T09:51:34.467Z,58.20
2018-07-30T09:54:02.811Z,58.50
2018-07-30T09:56:31.129Z,57.90
2018-07-30T09:58:59.433Z,58.00
2018-07-30T10:01:27.743Z,58.20
2018-07-30T10:03:56.504Z,58.00
2018-07-30T10:06:24.951Z,58.20
2018-07-30T10:08:53.248Z,57.80
2018-07-30T10:11:21.558Z,57.50
2018-07-30T10:13:50.075Z,57.80
2018-07-30T10:16:18.380Z,57.10
2018-07-30T10:18:46.825Z,57.50
2018-07-30T10:21:15.295Z,57.50
2018-07-30T10:26:11.870Z,57.20
2018-07-30T10:28:40.303Z,57.10
2018-07-30T10:31:08.968Z,57.30
2018-07-30T10:33:37.286Z,57.30
2018-07-30T10:36:05.570Z,57.30
2018-07-30T10:41:01.916Z,57.60
2018-07-30T10:43:30.227Z,57.60
2018-07-30T10:45:58.512Z,57.40
2018-07-30T10:48:26.795Z,57.50
2018-07-30T10:50:55.107Z,57.30
2018-07-30T10:53:23.399Z,57.40
2018-07-30T10:55:51.708Z,57.30
2018-07-30T10:58:20.002Z,57.60
2018-07-30T11:00:48.318Z,57.40
2018-07-30T11:05:44.807Z,57.40
2018-07-30T11:08:13.095Z,56.90
2018-07-30T11:10:41.390Z,57.40
2018-07-30T11:13:09.695Z,57.40
2018-07-30T11:18:06.066Z,57.20
2018-07-30T11:20:34.386Z,57.40
2018-07-30T11:23:02.697Z,57.30
2018-07-30T11:25:30.990Z,57.20
2018-07-30T11:27:59.412Z,56.90
2018-07-30T11:30:27.670Z,56.90
2018-07-30T11:32:55.975Z,57.00
2018-07-30T11:35:24.315Z,57.10
2018-07-30T11:37:52.640Z,57.30
2018-07-30T11:40:20.947Z,57.30
2018-07-30T11:42:49.281Z,57.30
2018-07-30T11:45:17.560Z,57.40
2018-07-30T11:47:45.852Z,57.30
2018-07-30T11:50:14.166Z,57.30
2018-07-30T11:52:42.463Z,57.10
2018-07-30T11:55:10.842Z,57.30
2018-07-30T11:57:39.155Z,57.10
2018-07-30T12:00:07.605Z,57.30
2018-07-30T12:02:35.931Z,57.20
2018-07-30T12:05:04.295Z,57.30
2018-07-30T12:07:32.613Z,57.20
2018-07-30T12:12:28.975Z,57.80
2018-07-30T12:14:57.280Z,57.20
2018-07-30T12:17:25.583Z,57.20
2018-07-30T12:19:54.128Z,57.10
2018-07-30T12:22:22.423Z,57.20
2018-07-30T12:24:50.751Z,57.00
2018-07-30T12:27:19.139Z,57.10
2018-07-30T12:29:47.445Z,57.00
2018-07-30T12:32:15.774Z,57.20
2018-07-30T12:37:12.135Z,56.60
2018-07-30T12:39:40.449Z,57.10
2018-07-30T12:42:08.777Z,57.00
2018-07-30T12:44:37.156Z,57.70
2018-07-30T12:47:05.626Z,57.20
2018-07-30T12:49:33.935Z,57.20
2018-07-30T12:52:02.255Z,57.00
2018-07-30T12:54:30.570Z,57.10
2018-07-30T12:56:58.971Z,57.10
2018-07-30T12:59:27.240Z,57.60
2018-07-30T13:01:55.580Z,57.60
2018-07-30T13:04:23.902Z,57.40
2018-07-30T13:06:52.202Z,57.30
2018-07-30T13:09:20.531Z,57.10
2018-07-30T13:11:48.844Z,57.10
2018-07-30T13:14:17.186Z,57.10
2018-07-30T13:16:45.505Z,57.20
2018-07-30T13:19:13.841Z,57.40
2018-07-30T13:21:42.145Z,57.30
2018-07-30T13:24:10.519Z,57.60
2018-07-30T13:29:06.990Z,57.40
2018-07-30T13:31:35.334Z,56.80
2018-07-30T13:36:31.825Z,56.90
2018-07-30T13:39:00.146Z,57.40
2018-07-30T13:41:28.509Z,57.40
2018-07-30T13:43:56.845Z,57.80
2018-07-30T13:46:25.148Z,57.50
2018-07-30T13:48:53.454Z,57.30
2018-07-30T13:51:21.768Z,57.20
2018-07-30T13:53:50.077Z,57.30
2018-07-30T13:56:18.367Z,57.40
2018-07-30T13:58:46.698Z,57.50
2018-07-30T14:01:14.996Z,57.50
2018-07-30T14:03:43.495Z,57.50
2018-07-30T14:06:11.875Z,57.60
2018-07-30T14:08:40.157Z,57.60
2018-07-30T14:11:08.499Z,57.40
2018-07-30T14:13:36.798Z,57.20
2018-07-30T14:16:05.119Z,57.20
2018-07-30T14:18:33.470Z,57.20
2018-07-30T14:21:01.821Z,57.20
2018-07-30T14:23:30.134Z,57.20
2018-07-30T14:25:58.443Z,57.20
2018-07-30T14:28:26.816Z,57.20
2018-07-30T14:30:55.113Z,57.20
2018-07-30T14:33:23.435Z,57.20
2018-07-30T14:35:51.796Z,57.10
2018-07-30T14:38:20.107Z,57.50
2018-07-30T14:40:48.463Z,57.30
2018-07-30T14:43:16.776Z,57.80
2018-07-30T14:45:45.097Z,57.70
2018-07-30T14:48:13.397Z,57.60
2018-07-30T14:50:41.906Z,57.80
2018-07-30T14:53:10.382Z,57.60
2018-07-30T14:55:38.815Z,58.20
2018-07-30T14:58:07.093Z,58.10
2018-07-30T15:00:35.503Z,58.10
2018-07-30T15:03:03.922Z,58.30
2018-07-30T15:05:32.210Z,58.40
2018-07-30T15:08:00.535Z,59.30
2018-07-30T15:10:28.861Z,59.00
2018-07-30T15:12:57.166Z,59.40
2018-07-30T15:15:25.467Z,59.50
2018-07-30T15:17:53.814Z,59.70
2018-07-30T15:20:22.194Z,59.70
2018-07-30T15:22:50.774Z,59.80
2018-07-30T15:25:19.068Z,59.90
2018-07-30T15:27:47.415Z,59.90
2018-07-30T15:30:15.717Z,59.90
2018-07-30T15:32:44.041Z,59.90
2018-07-30T15:35:12.355Z,60.00
2018-07-30T15:37:40.775Z,59.80
2018-07-30T15:40:09.158Z,59.80
2018-07-30T15:42:37.450Z,60.00
2018-07-30T15:45:05.835Z,60.00
2018-07-30T15:47:34.163Z,60.00
2018-07-30T15:50:02.468Z,60.00
2018-07-30T15:52:30.890Z,60.00
2018-07-30T15:54:59.274Z,59.80
2018-07-30T15:57:27.555Z,60.10
2018-07-30T15:59:55.898Z,60.40
2018-07-30T16:02:24.272Z,61.20
2018-07-30T16:04:52.581Z,62.00
2018-07-30T16:07:20.922Z,61.80
2018-07-30T16:12:23.047Z,62.30
2018-07-30T16:14:51.542Z,62.00
2018-07-30T16:32:42.917Z,62.00
2018-07-30T16:37:45.017Z,62.70
2018-07-30T16:42:47.012Z,62.90
2018-07-30T16:45:15.311Z,62.60
2018-07-30T16:47:43.686Z,62.70
2018-07-30T16:50:12.016Z,62.50
2018-07-30T16:57:45.210Z,62.00
2018-07-30T17:00:13.550Z,61.60
2018-07-30T17:02:41.871Z,58.80
2018-07-30T17:05:10.332Z,58.00
2018-07-30T17:07:38.855Z,57.30
2018-07-30T17:10:07.196Z,57.20
2018-07-30T17:12:35.482Z,57.10
2018-07-30T17:15:03.815Z,56.80
2018-07-30T17:17:32.137Z,57.20
2018-07-30T17:20:00.599Z,56.80
2018-07-30T17:22:28.920Z,56.80
2018-07-30T17:24:57.210Z,60.10
2018-07-30T17:27:25.604Z,61.50
2018-07-30T17:32:22.454Z,61.70
2018-07-30T17:34:50.735Z,62.30
2018-07-30T17:37:19.379Z,62.60
2018-07-30T17:39:48.064Z,62.60
2018-07-30T17:42:16.853Z,62.90
2018-07-30T17:44:45.540Z,64.00
2018-07-30T17:47:13.890Z,63.90
2018-07-30T17:49:42.237Z,63.10
2018-07-30T17:52:10.557Z,61.90
2018-07-30T17:54:39.259Z,61.90
2018-07-30T17:57:07.704Z,61.50
2018-07-30T18:02:04.191Z,61.50
2018-07-30T18:04:32.580Z,61.30
2018-07-30T18:07:00.907Z,61.50
2018-07-30T18:09:29.323Z,61.30
2018-07-30T18:11:57.635Z,61.20
2018-07-30T18:14:25.969Z,61.40
2018-07-30T18:16:54.656Z,61.20
2018-07-30T18:19:22.966Z,60.80
2018-07-30T18:21:51.358Z,60.90
2018-07-30T18:24:19.805Z,60.50
2018-07-30T18:26:48.111Z,60.80
2018-07-30T18:29:16.475Z,61.30
2018-07-30T18:31:44.832Z,61.20
2018-07-30T18:34:13.143Z,61.60
2018-07-30T18:39:09.574Z,61.40
2018-07-30T18:41:37.900Z,60.80
2018-07-30T18:44:06.212Z,60.50
2018-07-30T18:46:34.528Z,61.30
2018-07-30T18:49:02.876Z,61.80
2018-07-30T18:51:31.273Z,62.80
2018-07-30T18:53:59.606Z,63.80
2018-07-30T18:56:27.997Z,64.70
2018-07-30T18:58:56.274Z,66.10
2018-07-30T19:01:24.660Z,67.80
2018-07-30T19:03:52.994Z,69.10
2018-07-30T19:06:21.360Z,69.60
2018-07-30T19:11:17.878Z,69.90
2018-07-30T19:13:46.172Z,70.00
2018-07-30T19:16:14.735Z,69.60
2018-07-30T19:18:43.428Z,68.90
2018-07-30T19:21:11.742Z,69.10
2018-07-30T19:23:40.385Z,68.80
2018-07-30T19:26:09.164Z,69.90
2018-07-30T19:28:38.277Z,68.80
2018-07-30T19:33:34.955Z,69.60
2018-07-30T19:36:03.610Z,68.90
2018-07-30T19:38:31.955Z,68.00
2018-07-30T19:41:00.765Z,67.80
2018-07-30T19:43:29.463Z,68.10
2018-07-30T19:45:57.819Z,67.30
2018-07-30T19:48:26.225Z,69.00
2018-07-30T19:50:55.105Z,69.50
2018-07-30T19:53:24.006Z,69.00
2018-07-30T19:55:52.428Z,70.30
2018-07-30T19:58:21.086Z,70.30
2018-07-30T20:00:49.451Z,70.30
2018-07-30T20:03:17.776Z,70.10
2018-07-30T20:05:46.179Z,71.30
2018-07-30T20:08:14.539Z,70.20
2018-07-30T20:10:43.166Z,70.20
2018-07-30T20:13:11.503Z,71.00
2018-07-30T20:15:39.832Z,71.00
2018-07-30T20:18:08.552Z,71.00
2018-07-30T20:20:37.287Z,70.60
2018-07-30T20:23:05.983Z,70.10
2018-07-30T20:25:34.712Z,70.10
2018-07-30T20:28:03.572Z,70.00
2018-07-30T20:30:31.994Z,69.60
2018-07-30T20:33:00.823Z,69.70
2018-07-30T20:35:29.311Z,69.90
2018-07-30T20:37:57.714Z,69.60
2018-07-30T20:40:26.006Z,69.10
2018-07-30T20:42:54.300Z,69.50
2018-07-30T20:45:22.630Z,70.10
2018-07-30T20:47:50.948Z,70.40
2018-07-30T20:50:21.839Z,71.50
2018-07-30T20:52:50.423Z,71.10
2018-07-30T20:55:18.766Z,71.00
2018-07-30T20:57:47.088Z,71.00
2018-07-30T21:00:15.430Z,71.50
2018-07-30T21:02:43.731Z,71.10
2018-07-30T21:05:12.095Z,70.80
2018-07-30T21:07:40.401Z,70.40
2018-07-30T21:10:08.817Z,69.90
2018-07-30T21:12:37.103Z,69.60
2018-07-30T21:15:06.048Z,69.10
2018-07-30T21:17:34.636Z,69.00
2018-07-30T21:20:03.203Z,68.40
2018-07-30T21:22:31.522Z,69.60
2018-07-30T21:25:00.054Z,69.10
2018-07-30T21:27:28.350Z,69.00
2018-07-30T21:29:56.677Z,69.10
2018-07-30T21:32:24.967Z,68.80
2018-07-30T21:34:53.307Z,68.80
2018-07-30T21:37:21.613Z,68.50
2018-07-30T21:39:49.925Z,68.40
2018-07-30T21:42:18.217Z,68.30
2018-07-30T21:44:46.515Z,68.30
2018-07-30T21:47:14.855Z,68.00
2018-07-30T21:49:43.142Z,67.80
2018-07-30T21:52:11.451Z,67.60
2018-07-30T21:54:39.846Z,67.80
2018-07-30T21:57:08.285Z,67.70
2018-07-30T21:59:36.623Z,68.10
2018-07-30T22:02:04.934Z,67.50
2018-07-30T22:04:33.250Z,67.60
2018-07-30T22:07:01.552Z,66.90
2018-07-30T22:09:29.844Z,66.10
2018-07-30T22:11:58.238Z,66.00
2018-07-30T22:14:26.488Z,65.70
2018-07-30T22:16:54.808Z,65.60
2018-07-30T22:19:23.102Z,65.20
2018-07-30T22:24:19.481Z,65.00
2018-07-30T22:26:47.879Z,65.00
2018-07-30T22:29:16.187Z,65.10
2018-07-30T22:31:44.543Z,64.90
2018-07-30T22:34:13.115Z,64.70
2018-07-30T22:36:41.566Z,64.60
2018-07-30T22:39:11.439Z,64.50
2018-07-30T22:41:39.738Z,64.50
2018-07-30T22:46:36.584Z,64.50
2018-07-30T22:49:04.950Z,64.40
2018-07-30T22:51:33.295Z,64.60
2018-07-30T22:54:01.635Z,64.20
2018-07-30T22:56:29.947Z,64.10
2018-07-30T22:58:58.467Z,64.10
2018-07-30T23:01:26.786Z,64.10
2018-07-30T23:03:55.101Z,64.60
2018-07-30T23:06:23.472Z,66.30
2018-07-30T23:08:51.776Z,67.60
2018-07-30T23:11:20.123Z,68.10
2018-07-30T23:13:48.534Z,68.70
2018-07-30T23:16:16.905Z,69.30
2018-07-30T23:18:45.271Z,69.90
2018-07-30T23:21:13.619Z,70.60
2018-07-30T23:23:41.998Z,70.70
2018-07-30T23:26:10.327Z,71.00
2018-07-30T23:28:38.723Z,71.70
2018-07-30T23:31:07.100Z,71.10
2018-07-30T23:33:35.492Z,70.90
2018-07-30T23:36:03.872Z,70.50
2018-07-30T23:38:32.242Z,70.70
2018-07-30T23:41:00.584Z,70.80
2018-07-30T23:43:28.940Z,70.80
2018-07-30T23:45:57.268Z,71.40
2018-07-30T23:48:25.594Z,70.80
2018-07-30T23:50:53.895Z,71.10
2018-07-30T23:53:22.258Z,70.90
2018-07-30T23:55:50.646Z,70.70
2018-07-30T23:58:18.978Z,70.10
